Gilman, CT (06336)

3:44 PM EDT on September 01, 2014 (GMT -0400)
Babcock Hill | Change Station
CLOSE
Current Station
Personal Weather Station
Location: Lebanon, CT
Elevation: 440 ft
Nearby Weather Stations

Elev 440 ft 41.65 °N, 72.18 °W | Updated 5 minutes ago

Overcast
Overcast
84.7 °F
Feels Like 93 °F
N
0.0
Wind Variable Wind from SW

Today
High -- | Low -- °F
--% Chance of Precip.
Yesterday
High -- | Low -- °F
Precip. -- in
6:14 AM 7:21 PM
Waxing Crescent, 43% visible
Pressure 29.95 in
Visibility 10.0 miles
Clouds Mostly Cloudy 4600 ft
Overcast 7500 ft
Heat Index 93 °F
Dew Point 75 °F
Humidity 73%
Rainfall 0.00 in
Snow Depth Not available.
UV 2.3 out of 12
Pollen 4.30 out of 12
Ozone Good
PM2.5 Good
Flu Activity Not available.
METAR KIJD 011852Z AUTO VRB04KT 10SM BKN046 OVC075 29/20 A2995 RMK AO2 SLP141 T02940200

More Conditions Fewer Conditions

Pressure 29.95 in
Visibility 10.0 miles
Clouds Mostly Cloudy 4600 ft
Overcast 7500 ft
Heat Index 93 °F
Dew Point 75 °F
Humidity 73%
Rainfall 0.00 in
Snow Depth Not available.
UV 2.3 out of 12
Pollen 4.30 out of 12
Ozone Good
PM2.5 Good
Flu Activity Not available.
METAR KIJD 011852Z AUTO VRB04KT 10SM BKN046 OVC075 29/20 A2995 RMK AO2 SLP141 T02940200

More Conditions Fewer Conditions

10-Day Weather Forecast

Almanac

Astronomy

Sep. 01, 2014 Rise Set
Actual Time 6:14 AM EDT 7:21 PM EDT
Civil Twilight 5:46 AM EDT 7:50 PM EDT
Nautical Twilight 5:12 AM EDT 8:24 PM EDT
Astronomical Twilight 4:36 AM EDT 8:59 PM EDT
Moon 1:02 PM EDT 11:15 PM EDT
Length of Visible Light 14h 04m
Length of Day
13h 07m
Tomorrow will be 2m 41s shorter.
Waxing Crescent, 43% of the Moon is Illuminated
Today
Waxing Crescent
Sep 2
First Quarter
Sep 8
Full
Sep 15
Last Quarter
Sep 24
New

Today's Extremes

State Highs State Lows

Community

WunderPhotos

Upload Photos

1,749,387 photos uploaded!

WunderBlogs® & News

Nearby

Air Quality

  Air Quality AQ Index Pollutant
Yesterday Good
OZONE
Yesterday Good
PM2.5
Current Good
OZONE
Current Good
PM2.5
Monday Good
PM2.5
Monday Good
OZONE
Tuesday Moderate
OZONE
Tuesday Moderate
PM2.5

Snow Depth

Station Depth Elevation
No new snow has been reported.

Earthquake Activity

City Distance Mag. Time & Date
No recent earthquake activity has been reported nearby.
Minimum magnitude displayed is 2.5.

Coastal Water Temperatures

Place Temperature
New London, CT 71.1 °F
Newport, RI 71.1 °F
Quonset Point, RI 71.1 °F
Conimicut Light, RI 73.9 °F
Providence, RI 73.0 °F

Nearby Weather Stations